Albrightsville, Pennsylvania
Current Conditions -  °F | °C
As of 4:53 AM on Saturday 01 Nov 2014 (Local Time) from KMPO Reporting Station
Overcast Overcast  
Wind Chill: 32°   Ceiling: 1700
Heat Index: 41°   Visibility: 10mi
Dew Point: 34°   Wind: 17mph
Humidity: 76%   Direction: 50°NE
Pressure: 29.81"   Gusts: 23mph
Location:  41°N, 75.53°W
Report Text: KMPO 010853Z AUTO 05015G20KT 10SM OVC017 05/01 A2981 RMK AO2 SLP103 T00500011 56009
Loading
Personal Weather Stations






























Interactive Weather Map
Tropical Storm Tracking
New forecast layout! Learn more

10-Day Weather Forecast

Advertisements
Track Severe Weather on mobile